Time;durP1;ratioP1;P1;durP2;ratioP2;P2;SDS_P1;SDS_P2;PMS_P1;PMS_P2;Temp;Humidity;BMP_temperature;BMP_pressure;BME280_temperature;BME280_humidity;BME280_pressure;Samples;Min_cycle;Max_cycle;Signal;HPM_P1;HPM_P2
2022/10/18 00:03:45;;;;;;;1.10;0.88;;;;;;;18.91;65.29;97554.41;10559717;28;20030;-32
2022/10/18 00:08:45;;;;;;;2.23;1.10;;;;;;;18.91;64.84;97570.47;10570694;28;20032;-30
2022/10/18 00:13:46;;;;;;;2.57;1.33;;;;;;;18.87;64.76;97565.34;10560109;28;20293;-31
2022/10/18 00:18:47;;;;;;;4.03;1.00;;;;;;;18.87;64.83;97578.03;10564232;28;20088;-31
2022/10/18 00:23:49;;;;;;;1.02;0.85;;;;;;;18.86;64.59;97581.41;10560984;28;20222;-31
2022/10/18 00:28:53;;;;;;;2.22;1.00;;;;;;;18.86;64.56;97573.81;10555771;28;20028;-33
2022/10/18 00:34:00;;;;;;;1.15;1.05;;;;;;;18.85;64.59;97574.63;10565301;28;20042;-30
2022/10/18 00:39:01;;;;;;;;;;;;;;;18.84;64.52;97570.41;10561949;28;20081;-29
2022/10/18 00:44:04;;;;;;;2.30;1.05;;;;;;;18.88;66.46;97564.50;10557863;28;19918;-31
2022/10/18 00:49:10;;;;;;;1.52;1.08;;;;;;;19.01;67.71;97568.91;10562976;28;20079;-30
2022/10/18 00:54:12;;;;;;;3.28;1.00;;;;;;;19.04;66.88;97566.41;10561952;28;20039;-30
2022/10/18 00:59:14;;;;;;;2.35;1.00;;;;;;;19.02;65.67;97561.28;10564172;28;20031;-31
2022/10/18 01:04:17;;;;;;;3.60;1.02;;;;;;;18.96;65.10;97556.19;10560802;28;20553;-30
2022/10/18 01:09:24;;;;;;;3.35;1.40;;;;;;;18.90;65.06;97553.56;10559984;28;20031;-31
2022/10/18 01:14:54;;;;;;;3.35;1.73;;;;;;;18.90;64.58;97557.75;10560218;28;20039;-30
2022/10/18 01:20:22;;;;;;;1.55;0.90;;;;;;;18.88;64.63;97551.84;10475135;28;20515;-30
2022/10/18 01:25:49;;;;;;;1.45;0.90;;;;;;;18.86;64.65;97554.38;10565631;28;20030;-31
2022/10/18 01:31:39;;;;;;;3.80;1.00;;;;;;;18.85;64.54;97554.34;10550251;28;20077;-30
2022/10/18 01:36:45;;;;;;;1.38;1.27;;;;;;;18.84;64.52;97557.72;10526800;28;20036;-30
2022/10/18 01:41:48;;;;;;;;;;;;;;;18.80;64.67;97554.28;10551875;28;20028;-30
2022/10/18 01:46:49;;;;;;;1.20;0.70;;;;;;;18.88;67.37;97550.16;10563389;28;20425;-31
2022/10/18 01:51:50;;;;;;;2.20;1.02;;;;;;;19.02;67.69;97555.38;10561443;28;20375;-31
2022/10/18 01:57:08;;;;;;;1.23;0.80;;;;;;;19.04;66.32;97546.97;10556596;28;20027;-30
2022/10/18 02:02:37;;;;;;;1.13;1.02;;;;;;;19.00;65.64;97544.38;10556964;28;20077;-30
2022/10/18 02:07:55;;;;;;;2.45;0.93;;;;;;;18.92;64.91;97538.34;10561914;28;20031;-31
2022/10/18 02:12:58;;;;;;;1.45;1.02;;;;;;;18.88;64.76;97529.00;10555749;28;20113;-30
2022/10/18 02:18:02;;;;;;;2.15;0.90;;;;;;;18.86;64.48;97530.66;10536399;28;20395;-30
2022/10/18 02:23:07;;;;;;;2.45;1.27;;;;;;;18.85;64.68;97539.94;10562964;28;20112;-31
2022/10/18 02:28:07;;;;;;;2.28;1.05;;;;;;;18.85;64.60;97531.50;10560683;28;20047;-30
2022/10/18 02:33:16;;;;;;;3.28;1.08;;;;;;;18.84;64.50;97538.25;10569907;28;20028;-32
2022/10/18 02:38:19;;;;;;;1.15;0.85;;;;;;;18.85;64.46;97539.13;10565941;28;20035;-31
2022/10/18 02:43:22;;;;;;;1.00;0.90;;;;;;;18.84;64.37;97540.78;10563129;28;20055;-30
2022/10/18 02:48:22;;;;;;;1.33;1.00;;;;;;;18.91;67.50;97531.59;10568308;28;20149;-31
2022/10/18 02:53:23;;;;;;;1.83;1.27;;;;;;;19.04;67.52;97561.31;10567124;28;20056;-30
2022/10/18 02:58:23;;;;;;;1.65;1.10;;;;;;;19.05;66.66;97580.78;10559877;28;20322;-32
2022/10/18 03:03:24;;;;;;;1.37;1.00;;;;;;;19.01;66.04;97584.16;10566460;28;20046;-30
2022/10/18 03:08:24;;;;;;;0.80;0.70;;;;;;;18.95;65.26;97594.22;10566424;28;20035;-30
2022/10/18 03:13:25;;;;;;;1.83;1.00;;;;;;;18.91;64.89;97597.56;10567636;28;20032;-30
2022/10/18 03:18:25;;;;;;;1.03;0.80;;;;;;;18.88;64.61;97592.44;10561320;28;20504;-31
2022/10/18 03:23:26;;;;;;;1.13;0.80;;;;;;;18.88;64.50;97589.88;10566588;28;20423;-30
2022/10/18 03:28:27;;;;;;;1.23;0.90;;;;;;;18.87;64.60;97595.81;10564653;28;20384;-31
2022/10/18 03:33:27;;;;;;;1.67;0.93;;;;;;;18.86;64.41;97597.50;10565792;28;20393;-32
2022/10/18 03:38:28;;;;;;;1.35;0.80;;;;;;;18.85;64.39;97595.78;10562901;28;20028;-30
2022/10/18 03:43:28;;;;;;;0.70;0.63;;;;;;;18.84;64.43;97598.31;10560083;28;20024;-31
2022/10/18 03:48:29;;;;;;;1.27;1.02;;;;;;;18.88;66.69;97605.13;10567034;28;20034;-31
2022/10/18 03:53:29;;;;;;;2.33;1.10;;;;;;;19.01;67.29;97606.97;10564112;28;20034;-31
2022/10/18 03:58:29;;;;;;;2.30;1.73;;;;;;;19.05;67.59;97623.94;10566558;28;20036;-30
2022/10/18 04:03:30;;;;;;;1.57;0.87;;;;;;;19.00;65.53;97620.50;10563257;28;20037;-31
2022/10/18 04:08:30;;;;;;;1.80;1.10;;;;;;;18.94;64.88;97623.81;10571918;28;20039;-31
2022/10/18 04:13:31;;;;;;;0.82;0.80;;;;;;;18.91;65.07;97618.69;10563616;28;20024;-31
2022/10/18 04:18:31;;;;;;;1.07;0.80;;;;;;;18.89;64.66;97616.97;10559105;28;20031;-30
2022/10/18 04:23:31;;;;;;;2.07;0.90;;;;;;;18.87;64.62;97611.03;10553931;27;20119;-31
2022/10/18 04:28:33;;;;;;;1.30;0.80;;;;;;;18.87;64.62;97614.44;10558974;28;20281;-31
2022/10/18 04:33:34;;;;;;;1.02;0.90;;;;;;;18.86;64.64;97604.25;10566875;28;20039;-30
2022/10/18 04:38:34;;;;;;;2.10;1.00;;;;;;;18.85;65.10;97590.69;10545416;28;20035;-30
2022/10/18 04:43:34;;;;;;;8.40;3.00;;;;;;;18.76;64.51;97580.44;10557239;28;20056;-31
2022/10/18 04:48:35;;;;;;;6.35;2.40;;;;;;;18.86;64.47;97612.72;10562753;28;20101;-31
2022/10/18 04:53:35;;;;;;;7.15;2.65;;;;;;;18.96;65.72;97612.00;10562045;28;20035;-31
2022/10/18 04:58:36;;;;;;;9.10;2.37;;;;;;;19.05;65.27;97614.66;10552879;28;20027;-31
2022/10/18 05:03:36;;;;;;;7.30;2.10;;;;;;;19.03;65.19;97615.47;10557855;28;20490;-31
2022/10/18 05:08:37;;;;;;;7.20;1.35;;;;;;;19.00;64.63;97620.50;10549208;28;20526;-32
2022/10/18 05:13:37;;;;;;;7.85;1.77;;;;;;;18.94;64.74;97617.88;10548563;28;20147;-31
2022/10/18 05:18:38;;;;;;;9.63;2.10;;;;;;;18.91;64.41;97622.94;10556807;28;20035;-31
2022/10/18 05:23:38;;;;;;;8.38;1.60;;;;;;;18.89;64.12;97616.97;10561584;28;20027;-31
2022/10/18 05:28:38;;;;;;;9.80;1.87;;;;;;;18.89;64.88;97609.34;10554252;28;20550;-31
2022/10/18 05:33:39;;;;;;;18.03;3.60;;;;;;;18.89;65.79;97611.88;10563287;28;20294;-31
2022/10/18 05:38:44;;;;;;;24.80;3.22;;;;;;;18.88;64.64;97605.13;10542962;28;20031;-31
2022/10/18 05:43:44;;;;;;;19.33;2.10;;;;;;;18.86;64.48;97615.25;10544674;28;20028;-30
2022/10/18 05:48:49;;;;;;;13.40;2.43;;;;;;;18.86;64.28;97606.78;10556626;28;20036;-31
2022/10/18 05:53:50;;;;;;;11.63;3.47;;;;;;;18.95;67.72;97611.97;10559715;28;20027;-31
2022/10/18 05:58:51;;;;;;;15.27;3.92;;;;;;;19.02;67.70;97624.75;10568800;28;20450;-31
2022/10/18 06:03:51;;;;;;;11.68;2.55;;;;;;;19.03;66.65;97616.31;10566802;28;20518;-30
2022/10/18 06:08:51;;;;;;;12.23;2.10;;;;;;;19.01;65.75;97612.06;10570625;28;20374;-30
2022/10/18 06:13:52;;;;;;;10.30;2.47;;;;;;;18.95;64.93;97615.38;10566944;28;20499;-31
2022/10/18 06:18:54;;;;;;;8.47;1.80;;;;;;;18.94;64.89;97635.66;10565115;28;20383;-32
2022/10/18 06:23:57;;;;;;;8.95;2.05;;;;;;;18.91;64.26;97635.63;10565074;28;20353;-31
2022/10/18 06:28:58;;;;;;;7.43;1.73;;;;;;;18.89;64.53;97637.25;10556851;28;20123;-32
2022/10/18 06:33:58;;;;;;;4.73;1.40;;;;;;;18.89;64.58;97637.25;10568988;28;20032;-31
2022/10/18 06:38:58;;;;;;;6.07;1.83;;;;;;;18.86;64.70;97647.38;10560385;28;20047;-31
2022/10/18 06:44:02;;;;;;;5.20;1.90;;;;;;;18.86;64.42;97653.31;10567609;28;20569;-30
2022/10/18 06:49:03;;;;;;;7.00;2.55;;;;;;;18.86;64.46;97657.53;10563794;28;20041;-30
2022/10/18 06:54:03;;;;;;;6.87;2.93;;;;;;;18.89;66.77;97660.97;10560813;28;20461;-31
2022/10/18 06:59:04;;;;;;;7.37;2.23;;;;;;;19.01;67.04;97656.03;10567149;28;20435;-30
2022/10/18 07:04:04;;;;;;;4.95;2.03;;;;;;;19.05;66.47;97659.47;10564225;28;20023;-31
2022/10/18 07:09:04;;;;;;;6.57;1.43;;;;;;;19.02;65.64;97661.97;10570216;28;20040;-31
2022/10/18 07:14:05;;;;;;;5.37;1.87;;;;;;;18.97;64.99;97653.44;10563201;28;20257;-31
2022/10/18 07:19:05;;;;;;;3.72;1.55;;;;;;;18.94;64.75;97656.81;10564188;28;20705;-30
2022/10/18 07:24:06;;;;;;;4.50;1.73;;;;;;;18.90;64.54;97669.41;10564276;28;20080;-31
2022/10/18 07:29:10;;;;;;;2.15;1.20;;;;;;;18.88;64.47;97671.09;10562081;28;20434;-30
2022/10/18 07:34:12;;;;;;;6.47;1.88;;;;;;;18.89;64.45;97682.94;10569778;28;20439;-32
2022/10/18 07:39:12;;;;;;;5.00;1.52;;;;;;;18.83;64.33;97678.63;10567309;28;20359;-30
2022/10/18 07:44:12;;;;;;;2.20;1.10;;;;;;;18.85;64.33;97692.19;10556677;28;20032;-30
2022/10/18 07:49:13;;;;;;;3.77;1.33;;;;;;;18.84;64.26;97687.13;10563289;28;20405;-29
2022/10/18 07:54:13;;;;;;;2.88;1.30;;;;;;;18.84;64.26;97679.50;10570241;28;20032;-29
2022/10/18 07:59:14;;;;;;;2.28;1.48;;;;;;;18.98;67.08;97675.44;10566128;28;20035;-30
2022/10/18 08:04:14;;;;;;;3.40;1.67;;;;;;;19.04;67.47;97673.00;10559942;28;20432;-31
2022/10/18 08:09:14;;;;;;;2.00;1.03;;;;;;;19.05;65.96;97679.78;10566377;28;20408;-32
2022/10/18 08:14:15;;;;;;;1.87;1.10;;;;;;;19.01;65.21;97672.97;10559427;28;20285;-31
2022/10/18 08:19:15;;;;;;;2.90;1.40;;;;;;;18.94;64.46;97681.34;10559696;28;20478;-30
2022/10/18 08:24:16;;;;;;;2.80;1.00;;;;;;;18.92;64.66;97675.38;10561659;28;20281;-32
2022/10/18 08:29:16;;;;;;;2.80;1.90;;;;;;;18.90;64.31;97684.63;10566766;28;20032;-31
2022/10/18 08:34:16;;;;;;;1.27;1.03;;;;;;;18.88;64.40;97678.69;10563077;28;20330;-30
2022/10/18 08:39:17;;;;;;;2.50;1.10;;;;;;;18.86;64.36;97675.28;10560245;28;20528;-31
2022/10/18 08:44:25;;;;;;;2.37;1.30;;;;;;;18.87;64.40;97677.00;10558696;28;20374;-30
2022/10/18 08:49:36;;;;;;;1.98;1.48;;;;;;;18.86;64.48;97667.69;10555950;28;20032;-31
2022/10/18 08:54:43;;;;;;;2.90;1.45;;;;;;;18.81;64.40;97669.28;10566572;28;20035;-34
2022/10/18 08:59:43;;;;;;;1.45;1.20;;;;;;;18.91;66.67;97681.31;10547491;28;20055;-30
2022/10/18 09:05:31;;;;;;;1.98;1.33;;;;;;;19.03;67.81;97696.69;10563856;28;20038;-30
2022/10/18 09:10:48;;;;;;;1.33;0.98;;;;;;;19.05;66.32;97685.72;10474807;28;20423;-30
2022/10/18 09:15:53;;;;;;;1.30;0.97;;;;;;;19.01;64.89;97680.59;10553254;28;20036;-31
2022/10/18 09:21:22;;;;;;;1.67;1.17;;;;;;;18.93;64.75;97687.25;10556152;28;20724;-32
2022/10/18 09:26:24;;;;;;;2.10;1.05;;;;;;;18.92;64.60;97694.00;10559538;28;20088;-30
2022/10/18 09:31:45;;;;;;;2.55;1.20;;;;;;;18.91;64.56;97689.75;10569801;28;20059;-31
2022/10/18 09:36:49;;;;;;;1.30;1.00;;;;;;;18.87;64.39;97684.59;10562271;28;20043;-31
2022/10/18 09:42:04;;;;;;;1.52;1.08;;;;;;;18.85;64.47;97683.75;10566296;28;20055;-31
2022/10/18 09:47:12;;;;;;;1.10;1.00;;;;;;;18.86;64.26;97685.44;10565878;28;20508;-30
2022/10/18 09:52:25;;;;;;;2.97;1.10;;;;;;;18.86;64.35;97685.44;10561653;28;20056;-31
2022/10/18 09:57:44;;;;;;;1.58;0.95;;;;;;;18.85;64.35;97682.03;10568590;28;20078;-31
2022/10/18 10:02:44;;;;;;;1.67;1.35;;;;;;;18.90;66.85;97682.09;10559059;28;20028;-30
2022/10/18 10:07:47;;;;;;;1.57;1.20;;;;;;;19.04;67.56;97678.94;10569371;28;20404;-30
2022/10/18 10:13:03;;;;;;;2.65;1.13;;;;;;;19.09;66.11;97687.44;10567678;28;20032;-31
2022/10/18 10:18:16;;;;;;;1.75;0.80;;;;;;;19.04;64.85;97680.63;10559506;28;20504;-30
2022/10/18 10:23:28;;;;;;;2.35;1.38;;;;;;;18.95;64.71;97688.97;10559815;28;20413;-31
2022/10/18 10:28:42;;;;;;;1.63;1.02;;;;;;;18.92;64.66;97683.00;10566153;28;20039;-31
2022/10/18 10:33:46;;;;;;;1.52;1.30;;;;;;;18.92;64.48;97683.00;10568898;28;20036;-31
2022/10/18 10:39:04;;;;;;;2.35;0.98;;;;;;;18.89;64.35;97673.66;10557665;28;20035;-32
2022/10/18 10:44:14;;;;;;;1.40;0.85;;;;;;;18.86;64.34;97670.22;10561371;28;20016;-31
2022/10/18 10:49:23;;;;;;;5.10;0.98;;;;;;;18.85;64.29;97665.97;10563027;28;20040;-31
2022/10/18 10:54:26;;;;;;;1.50;0.90;;;;;;;18.85;64.32;97666.81;10563601;28;20111;-31
2022/10/18 10:59:40;;;;;;;4.75;1.00;;;;;;;18.82;64.37;97659.19;10561238;28;20118;-30
2022/10/18 11:04:41;;;;;;;2.17;0.73;;;;;;;18.83;64.28;97667.66;10549014;28;20050;-31
2022/10/18 11:10:05;;;;;;;1.20;1.00;;;;;;;19.00;67.58;97666.19;10556819;28;20032;-30
2022/10/18 11:15:27;;;;;;;1.40;1.10;;;;;;;19.08;67.30;97664.59;10561783;28;20420;-30
2022/10/18 11:20:45;;;;;;;0.95;0.90;;;;;;;19.06;65.30;97676.41;10547583;28;108501;-31
2022/10/18 11:26:16;;;;;;;1.80;1.10;;;;;;;18.97;64.78;97669.53;10555627;28;20112;-31
2022/10/18 11:31:31;;;;;;;1.50;1.13;;;;;;;18.94;64.50;97671.19;10563452;28;20106;-31
2022/10/18 11:36:55;;;;;;;2.90;1.60;;;;;;;18.94;64.50;97671.19;10560530;28;20035;-30
2022/10/18 11:42:07;;;;;;;4.63;1.50;;;;;;;18.91;64.36;97661.84;10557946;28;20420;-31
2022/10/18 11:47:47;;;;;;;3.50;1.88;;;;;;;18.89;64.39;97655.03;10569128;28;20027;-32
2022/10/18 11:53:12;;;;;;;1.92;1.40;;;;;;;18.88;64.53;97648.25;10497345;28;20310;-30
2022/10/18 11:58:12;;;;;;;3.80;1.92;;;;;;;18.88;64.57;97645.72;10562742;28;20069;-31
2022/10/18 12:03:21;;;;;;;3.58;2.72;;;;;;;18.88;64.29;97638.97;10553175;28;20072;-31
2022/10/18 12:08:30;;;;;;;2.63;2.30;;;;;;;18.87;64.39;97638.94;10557010;28;20114;-31
2022/10/18 12:13:43;;;;;;;2.67;1.48;;;;;;;19.07;68.74;97638.34;10561047;28;20051;-30
2022/10/18 12:18:58;;;;;;;7.35;2.00;;;;;;;19.14;69.31;97629.13;10548253;28;20397;-31
2022/10/18 12:24:07;;;;;;;2.17;1.50;;;;;;;19.11;65.29;97629.09;10556332;28;20490;-31
2022/10/18 12:29:15;;;;;;;3.35;1.83;;;;;;;19.04;65.70;97627.31;10540169;28;20035;-31
2022/10/18 12:34:22;;;;;;;3.67;1.95;;;;;;;18.97;64.97;97620.44;10556944;28;20038;-31
2022/10/18 12:39:25;;;;;;;;;;;;;;;18.92;64.20;97622.09;10560750;28;20058;-31
2022/10/18 12:44:32;;;;;;;4.65;1.95;;;;;;;18.88;64.38;97623.75;10560912;28;20002;-30
2022/10/18 12:49:36;;;;;;;;;;;;;;;18.89;64.33;97606.81;10555346;28;20032;-30
2022/10/18 12:54:38;;;;;;;4.85;1.70;;;;;;;18.84;65.43;97608.47;10563239;28;20352;-31
2022/10/18 12:59:40;;;;;;;8.25;1.80;;;;;;;18.89;65.37;97607.69;10552208;28;20500;-32
2022/10/18 13:04:40;;;;;;;6.30;1.48;;;;;;;18.87;65.57;97599.22;10557388;28;20028;-32
2022/10/18 13:09:51;;;;;;;3.57;1.53;;;;;;;18.87;65.41;97604.28;10561884;28;20477;-31
2022/10/18 13:15:00;;;;;;;2.88;1.63;;;;;;;19.02;68.81;97594.28;10553147;28;20658;-30
2022/10/18 13:20:17;;;;;;;4.53;1.70;;;;;;;19.14;68.37;97591.03;10554039;28;20522;-31
2022/10/18 13:25:55;;;;;;;4.18;2.15;;;;;;;19.15;67.12;97590.19;10559630;28;20513;-30
2022/10/18 13:31:02;;;;;;;4.95;2.05;;;;;;;19.06;65.84;97579.94;10555255;28;20146;-31
2022/10/18 13:36:24;;;;;;;3.45;1.60;;;;;;;18.94;66.02;97575.63;10554165;28;20482;-30
2022/10/18 13:41:28;;;;;;;4.00;2.13;;;;;;;18.98;65.36;97586.63;10566393;28;20084;-31
2022/10/18 13:46:33;;;;;;;7.00;1.55;;;;;;;18.94;65.11;97584.91;10554344;28;20437;-30
2022/10/18 13:51:39;;;;;;;6.43;2.20;;;;;;;18.91;65.10;97587.41;10558543;28;20039;-30
2022/10/18 13:56:40;;;;;;;;;;;;;;;18.90;65.00;97581.47;10559497;28;20060;-30
2022/10/18 14:02:18;;;;;;;4.77;1.53;;;;;;;19.11;65.51;97583.41;10561674;28;19912;-30
2022/10/18 14:07:19;;;;;;;3.33;1.52;;;;;;;19.07;65.81;97591.81;10556608;28;20035;-31
2022/10/18 14:12:43;;;;;;;5.75;1.65;;;;;;;19.02;67.16;97596.00;10566109;28;20032;-31
2022/10/18 14:17:48;;;;;;;7.03;2.28;;;;;;;19.13;68.90;97591.88;10559483;28;20024;-32
2022/10/18 14:23:14;;;;;;;12.15;2.90;;;;;;;19.21;70.05;97590.31;10563987;28;20024;-30
2022/10/18 14:28:17;;;;;;;7.73;2.20;;;;;;;19.21;66.78;97587.78;10559567;28;20378;-31
2022/10/18 14:33:32;;;;;;;8.50;1.95;;;;;;;19.11;65.81;97584.28;10563132;28;20047;-30
2022/10/18 14:38:35;;;;;;;4.05;1.75;;;;;;;19.03;65.65;97585.88;10560827;28;20077;-30
2022/10/18 14:43:35;;;;;;;4.32;2.03;;;;;;;19.01;65.32;97579.06;10556817;28;20087;-30
2022/10/18 14:48:35;;;;;;;6.57;1.37;;;;;;;18.99;65.21;97570.59;10565601;28;20118;-30
2022/10/18 14:53:38;;;;;;;6.68;1.20;;;;;;;18.97;65.18;97569.69;10568646;28;20028;-31
2022/10/18 14:58:41;;;;;;;5.13;1.42;;;;;;;18.94;65.00;97567.13;10564069;28;20031;-32
2022/10/18 15:03:41;;;;;;;4.80;1.80;;;;;;;18.95;65.09;97566.28;10563555;28;20395;-31
2022/10/18 15:08:43;;;;;;;3.70;1.20;;;;;;;19.11;66.38;97578.31;10558318;28;20024;-30
2022/10/18 15:13:54;;;;;;;6.78;1.90;;;;;;;19.01;65.33;97568.91;10561954;28;20032;-30
2022/10/18 15:19:05;;;;;;;6.13;2.35;;;;;;;19.22;69.97;97571.69;10565759;28;20028;-30
2022/10/18 15:24:41;;;;;;;5.65;2.58;;;;;;;19.27;68.10;97572.63;10559508;28;20031;-30
2022/10/18 15:29:42;;;;;;;8.27;1.67;;;;;;;19.14;65.58;97563.97;10434604;28;20044;-30
2022/10/18 15:34:44;;;;;;;3.30;1.52;;;;;;;19.03;65.60;97557.94;10551455;28;20031;-30
2022/10/18 15:39:45;;;;;;;7.97;2.17;;;;;;;19.04;65.61;97562.19;10561064;28;20043;-30
2022/10/18 15:44:48;;;;;;;4.15;1.50;;;;;;;19.03;65.37;97562.16;10569625;28;20386;-32
2022/10/18 15:49:57;;;;;;;4.13;1.25;;;;;;;18.99;65.10;97558.72;10558944;28;20024;-33
2022/10/18 15:54:58;;;;;;;5.90;1.10;;;;;;;18.98;65.04;97551.97;10567405;28;20032;-30
2022/10/18 16:00:06;;;;;;;3.67;1.40;;;;;;;19.00;65.19;97554.53;10551012;27;20056;-31
2022/10/18 16:05:17;;;;;;;6.63;1.77;;;;;;;18.96;65.00;97552.78;10551452;28;20032;-31
2022/10/18 16:10:17;;;;;;;9.20;1.80;;;;;;;19.04;68.57;97551.16;10563306;28;20507;-31
2022/10/18 16:15:18;;;;;;;10.60;2.07;;;;;;;19.18;69.99;97553.00;10556437;28;20047;-32
2022/10/18 16:20:23;;;;;;;7.72;2.10;;;;;;;19.27;70.26;97550.59;10553900;28;20024;-31
2022/10/18 16:25:24;;;;;;;4.22;1.67;;;;;;;19.22;66.60;97564.94;10559366;28;20024;-30
2022/10/18 16:30:29;;;;;;;2.15;1.30;;;;;;;19.11;65.51;97563.09;10559992;28;20036;-31
2022/10/18 16:35:29;;;;;;;5.68;1.42;;;;;;;19.07;65.45;97566.41;10553758;28;20038;-31
2022/10/18 16:40:29;;;;;;;1.43;1.33;;;;;;;19.02;65.02;97565.53;10562394;28;20057;-30
2022/10/18 16:45:30;;;;;;;2.27;1.27;;;;;;;19.01;65.04;97564.66;10554764;28;20289;-30
2022/10/18 16:50:30;;;;;;;1.80;1.10;;;;;;;19.00;64.56;97565.50;10555555;28;20456;-31
2022/10/18 16:55:33;;;;;;;1.60;1.00;;;;;;;19.02;64.61;97565.53;10564035;28;20296;-30
2022/10/18 17:00:33;;;;;;;5.75;1.63;;;;;;;19.13;67.34;97576.66;10557053;28;20338;-30
2022/10/18 17:05:34;;;;;;;10.93;1.87;;;;;;;19.16;66.36;97580.06;10555216;28;20023;-31
2022/10/18 17:10:34;;;;;;;1.83;1.07;;;;;;;19.14;64.87;97585.97;10551715;28;20267;-31
2022/10/18 17:15:35;;;;;;;6.47;2.50;;;;;;;19.24;69.82;97591.19;10549452;28;20301;-31
2022/10/18 17:20:35;;;;;;;5.97;1.80;;;;;;;19.30;70.15;97595.50;10540648;28;20040;-30
2022/10/18 17:25:37;;;;;;;7.87;1.97;;;;;;;19.28;67.86;97597.16;10555951;28;20028;-30
2022/10/18 17:30:38;;;;;;;3.30;1.10;;;;;;;19.14;64.91;97601.19;10554532;28;20032;-32
2022/10/18 17:35:38;;;;;;;3.72;1.20;;;;;;;19.18;64.93;97597.88;10552080;28;20417;-31
2022/10/18 17:40:40;;;;;;;3.30;1.33;;;;;;;19.16;64.75;97612.25;10559091;28;20102;-31
2022/10/18 17:45:49;;;;;;;2.50;1.02;;;;;;;19.12;64.67;97615.56;10560836;28;20027;-32
2022/10/18 17:50:51;;;;;;;3.28;1.00;;;;;;;19.11;64.57;97616.41;10557856;28;20485;-31
2022/10/18 17:55:59;;;;;;;3.37;1.10;;;;;;;19.08;64.68;97618.91;10570026;28;20031;-31
2022/10/18 18:01:18;;;;;;;2.42;1.40;;;;;;;19.13;64.48;97622.34;10569190;28;20282;-30
2022/10/18 18:06:29;;;;;;;4.55;1.38;;;;;;;19.12;64.47;97623.19;10562049;28;20114;-31
2022/10/18 18:11:30;;;;;;;2.85;1.00;;;;;;;19.09;64.57;97625.69;10567264;28;20031;-31
2022/10/18 18:16:31;;;;;;;8.80;2.03;;;;;;;19.20;69.89;97614.88;10562544;28;20509;-30
2022/10/18 18:21:32;;;;;;;2.90;1.83;;;;;;;19.27;70.02;97620.84;10558200;28;20393;-31
2022/10/18 18:26:33;;;;;;;1.70;1.15;;;;;;;19.25;67.18;97625.06;10569384;28;20042;-31
2022/10/18 18:31:37;;;;;;;7.13;1.45;;;;;;;19.16;65.36;97624.94;10559690;28;20036;-31
2022/10/18 18:36:38;;;;;;;2.15;1.20;;;;;;;19.12;64.89;97621.50;10553195;28;20036;-33
2022/10/18 18:41:39;;;;;;;3.10;1.20;;;;;;;19.03;64.78;97611.25;10560292;28;20024;-30
2022/10/18 18:46:39;;;;;;;2.20;1.30;;;;;;;19.08;64.71;97624.81;10565553;28;20470;-31
2022/10/18 18:51:41;;;;;;;2.10;1.27;;;;;;;19.08;64.70;97618.91;10563061;28;20446;-31
2022/10/18 18:56:41;;;;;;;1.38;1.10;;;;;;;19.06;64.69;97620.56;10565108;28;20034;-30
2022/10/18 19:01:42;;;;;;;2.47;1.25;;;;;;;19.04;64.62;97623.09;10556792;28;20031;-31
2022/10/18 19:06:45;;;;;;;2.55;1.38;;;;;;;19.04;64.74;97632.38;10565007;28;20038;-32
2022/10/18 19:11:47;;;;;;;2.88;1.20;;;;;;;19.05;64.76;97619.72;10558897;28;20450;-32
2022/10/18 19:16:49;;;;;;;4.13;1.98;;;;;;;19.17;69.96;97619.03;10561096;28;20036;-31
2022/10/18 19:21:52;;;;;;;2.65;1.83;;;;;;;19.27;69.03;97619.16;10555767;28;20012;-30
2022/10/18 19:26:55;;;;;;;2.13;1.58;;;;;;;19.28;67.94;97622.56;10560373;28;20028;-31
2022/10/18 19:31:59;;;;;;;3.03;1.38;;;;;;;19.22;67.60;97619.94;10559743;28;20089;-31
2022/10/18 19:37:00;;;;;;;4.13;1.38;;;;;;;19.08;65.13;97619.75;10554987;28;20474;-30
2022/10/18 19:42:03;;;;;;;2.03;1.00;;;;;;;19.09;64.95;97616.38;10564538;28;20060;-32
2022/10/18 19:47:06;;;;;;;2.65;1.30;;;;;;;19.08;64.97;97613.84;10560676;28;20400;-31
2022/10/18 19:52:07;;;;;;;3.55;1.30;;;;;;;19.08;65.05;97613.84;10564705;28;20034;-30
2022/10/18 19:57:07;;;;;;;2.42;0.95;;;;;;;19.05;64.77;97614.66;10566364;28;20032;-31
2022/10/18 20:02:12;;;;;;;4.63;1.05;;;;;;;19.04;64.72;97607.88;10560292;28;20023;-31
2022/10/18 20:07:13;;;;;;;1.35;0.93;;;;;;;19.04;64.83;97607.00;10564038;28;20032;-31
2022/10/18 20:12:13;;;;;;;2.23;0.77;;;;;;;19.04;64.52;97604.47;10560517;28;20028;-31
2022/10/18 20:17:14;;;;;;;3.50;1.13;;;;;;;19.03;64.65;97606.19;10561206;28;20088;-31
2022/10/18 20:22:14;;;;;;;3.17;1.48;;;;;;;19.21;68.15;97611.50;10555158;28;20031;-31
2022/10/18 20:27:15;;;;;;;3.63;1.60;;;;;;;19.29;67.89;97614.09;10557728;28;20050;-30
2022/10/18 20:32:15;;;;;;;4.13;1.20;;;;;;;19.22;66.84;97607.25;10566989;28;20301;-30
2022/10/18 20:37:15;;;;;;;1.30;0.97;;;;;;;19.17;66.78;97603.78;10552030;28;20035;-32
2022/10/18 20:42:16;;;;;;;1.83;1.10;;;;;;;19.01;65.20;97587.50;10556226;28;20022;-31
2022/10/18 20:47:16;;;;;;;1.20;1.00;;;;;;;19.08;64.89;97608.75;10558194;28;20035;-30
2022/10/18 20:52:16;;;;;;;2.20;0.90;;;;;;;19.00;64.60;97607.81;10557388;28;20024;-31
2022/10/18 20:57:17;;;;;;;0.93;0.80;;;;;;;19.04;64.74;97607.00;10564103;28;20084;-30
2022/10/18 21:02:17;;;;;;;1.13;0.90;;;;;;;19.02;64.40;97603.59;10562098;28;20023;-31
2022/10/18 21:07:18;;;;;;;2.23;0.80;;;;;;;19.00;64.49;97588.34;10555205;28;20217;-31
2022/10/18 21:12:18;;;;;;;1.57;1.07;;;;;;;19.03;64.60;97600.22;10559046;28;20286;-31
2022/10/18 21:17:18;;;;;;;4.00;1.00;;;;;;;19.02;64.46;97589.22;10560617;28;20111;-31
2022/10/18 21:22:19;;;;;;;2.70;1.47;;;;;;;19.16;69.56;97581.78;10551073;28;20759;-30
2022/10/18 21:27:19;;;;;;;2.57;1.70;;;;;;;19.24;69.47;97580.22;10567103;28;20028;-31
2022/10/18 21:32:19;;;;;;;3.03;1.53;;;;;;;19.24;67.05;97570.06;10566425;28;20042;-31
2022/10/18 21:37:20;;;;;;;1.77;1.27;;;;;;;19.17;65.96;97568.25;10559684;28;20100;-31
2022/10/18 21:42:20;;;;;;;1.93;1.00;;;;;;;19.11;65.00;97578.31;10569513;28;20110;-30
2022/10/18 21:47:20;;;;;;;2.30;0.90;;;;;;;19.06;64.77;97574.88;10565417;28;20024;-31
2022/10/18 21:52:21;;;;;;;0.80;0.80;;;;;;;19.04;64.84;97562.19;10561809;28;20036;-29
2022/10/18 21:57:21;;;;;;;1.50;1.33;;;;;;;19.03;64.56;97559.63;10569391;28;20042;-30
2022/10/18 22:02:21;;;;;;;1.30;1.20;;;;;;;19.01;64.50;97557.06;10564639;28;20036;-31
2022/10/18 22:07:22;;;;;;;1.63;0.83;;;;;;;19.02;64.33;97555.38;10560702;28;20040;-32
2022/10/18 22:12:22;;;;;;;0.93;0.80;;;;;;;19.01;64.38;97557.06;10565712;28;20036;-30
2022/10/18 22:17:23;;;;;;;0.70;0.60;;;;;;;19.01;64.38;97546.06;10566276;28;20039;-30
2022/10/18 22:22:23;;;;;;;1.38;1.13;;;;;;;19.01;64.55;97551.16;10559967;28;20050;-30
2022/10/18 22:27:24;;;;;;;2.67;1.30;;;;;;;19.19;68.69;97554.75;10564426;28;20028;-30
2022/10/18 22:32:24;;;;;;;1.77;1.10;;;;;;;19.26;67.97;97543.00;10569173;28;20034;-31
2022/10/18 22:37:24;;;;;;;1.77;1.00;;;;;;;19.20;65.99;97537.84;10558729;28;20028;-31
2022/10/18 22:42:25;;;;;;;2.47;1.20;;;;;;;19.16;65.58;97536.09;10555793;28;20281;-31
2022/10/18 22:47:25;;;;;;;0.80;0.80;;;;;;;19.08;64.71;97532.63;10564731;28;20481;-31
2022/10/18 22:52:25;;;;;;;1.23;1.00;;;;;;;19.03;64.93;97531.69;10565607;28;20048;-31
2022/10/18 22:57:28;;;;;;;1.00;0.77;;;;;;;19.02;64.50;97527.47;10566085;28;20280;-31
2022/10/18 23:02:28;;;;;;;2.65;0.73;;;;;;;19.01;64.36;97523.22;10562290;28;20039;-30
2022/10/18 23:07:28;;;;;;;0.95;0.73;;;;;;;19.00;64.43;97524.06;10557808;28;20032;-32
2022/10/18 23:12:29;;;;;;;1.53;0.83;;;;;;;19.00;64.27;97529.16;10563076;28;20089;-32
2022/10/18 23:17:29;;;;;;;1.20;1.10;;;;;;;19.01;64.25;97530.84;10565632;28;20035;-30
2022/10/18 23:22:29;;;;;;;0.80;0.80;;;;;;;18.98;64.11;97524.03;10561995;28;20046;-31
2022/10/18 23:27:30;;;;;;;2.88;1.23;;;;;;;19.09;67.43;97531.78;10562758;28;20032;-31
2022/10/18 23:32:30;;;;;;;1.57;1.10;;;;;;;19.21;68.62;97525.16;10562051;28;20024;-31
2022/10/18 23:37:31;;;;;;;1.77;1.35;;;;;;;19.23;67.38;97507.41;10554823;28;20289;-30
2022/10/18 23:42:31;;;;;;;1.05;0.90;;;;;;;19.20;65.68;97512.44;10560359;28;20479;-30